Time;durP1;ratioP1;P1;durP2;ratioP2;P2;SDS_P1;SDS_P2;PMS_P1;PMS_P2;Temp;Humidity;BMP_temperature;BMP_pressure;BME280_temperature;BME280_humidity;BME280_pressure;Samples;Min_cycle;Max_cycle;Signal;HPM_P1;HPM_P2
2022/06/28 00:00:05;;;;;;;11.70;9.10;;;;;;;19.40;74.90;99902.49;108860;1279;139817;-67
2022/06/28 00:02:33;;;;;;;12.20;8.90;;;;;;;19.38;75.03;99902.33;108961;1279;22271;-67
2022/06/28 00:04:59;;;;;;;14.60;9.50;;;;;;;19.38;75.12;99909.23;108901;1277;138086;-66
2022/06/28 00:07:27;;;;;;;17.90;9.80;;;;;;;19.37;75.19;99913.66;109122;1277;22427;-67
2022/06/28 00:09:54;;;;;;;16.70;9.20;;;;;;;19.36;75.29;99907.05;109019;1279;22407;-68
2022/06/28 00:12:23;;;;;;;12.00;9.70;;;;;;;19.35;75.40;99909.17;108984;1278;138498;-66
2022/06/28 00:17:34;;;;;;;15.90;9.90;;;;;;;19.30;75.40;99904.25;108998;1277;138841;-67
2022/06/28 00:20:01;;;;;;;16.80;10.30;;;;;;;19.30;75.63;99904.16;109138;1277;22477;-67
2022/06/28 00:22:28;;;;;;;15.70;10.00;;;;;;;19.28;75.74;99901.42;108978;1278;138599;-66
2022/06/28 00:24:55;;;;;;;18.00;11.00;;;;;;;19.27;75.91;99900.17;109118;1278;22522;-65
2022/06/28 00:27:21;;;;;;;14.40;11.20;;;;;;;19.26;76.00;99897.70;109231;1279;22458;-66
2022/06/28 00:29:48;;;;;;;15.90;11.10;;;;;;;19.25;76.10;99897.50;109100;1278;140463;-67
2022/06/28 00:32:15;;;;;;;18.00;11.40;;;;;;;19.24;76.26;99895.30;105483;1278;25346;-67
2022/06/28 00:34:41;;;;;;;17.00;10.90;;;;;;;19.22;76.35;99896.05;104770;1278;139621;-66
2022/06/28 00:37:08;;;;;;;16.80;11.80;;;;;;;19.21;76.42;99897.29;104603;1281;26663;-67
2022/06/28 00:39:34;;;;;;;16.00;10.60;;;;;;;19.19;76.53;99894.96;104704;1280;25108;-67
2022/06/28 00:42:01;;;;;;;14.00;10.30;;;;;;;19.17;76.71;99895.06;104586;1279;139027;-68
2022/06/28 00:44:28;;;;;;;15.80;11.10;;;;;;;19.15;76.68;99890.74;104546;1279;24007;-67
2022/06/28 00:46:54;;;;;;;17.50;12.70;;;;;;;19.12;76.88;99890.23;104520;1279;138334;-67
2022/06/28 00:49:21;;;;;;;18.80;11.30;;;;;;;19.09;76.97;99891.02;104613;1280;22583;-68
2022/06/28 00:51:48;;;;;;;17.40;11.30;;;;;;;19.06;77.16;99891.95;104608;1279;24027;-67
2022/06/28 00:54:15;;;;;;;15.00;11.50;;;;;;;19.03;77.18;99893.05;104400;1280;138249;-69
2022/06/28 00:56:41;;;;;;;16.80;11.30;;;;;;;19.01;77.48;99901.83;104751;1280;22592;-67
2022/06/28 00:59:08;;;;;;;18.30;10.90;;;;;;;18.98;77.52;99897.47;104507;1280;138756;-66
2022/06/28 01:01:35;;;;;;;16.60;10.40;;;;;;;18.94;77.46;99899.35;104675;1280;22576;-67
2022/06/28 01:04:02;;;;;;;14.90;10.40;;;;;;;18.90;77.39;99898.98;109011;1278;23334;-67
2022/06/28 01:06:29;;;;;;;15.00;11.20;;;;;;;18.87;77.52;99900.21;109046;1277;138569;-68
2022/06/28 01:08:56;;;;;;;17.80;10.90;;;;;;;18.85;77.63;99893.52;109008;1279;23130;-68
2022/06/28 01:11:25;;;;;;;14.90;11.10;;;;;;;18.83;77.70;99897.73;109085;1277;139178;-68
2022/06/28 01:13:55;;;;;;;17.10;11.00;;;;;;;18.80;77.93;99895.07;109060;1278;22424;-68
2022/06/28 01:16:22;;;;;;;15.90;11.00;;;;;;;18.79;77.88;99891.51;108962;1277;138424;-68
2022/06/28 01:18:51;;;;;;;15.00;10.60;;;;;;;18.78;77.96;99894.89;109063;1278;22471;-68
2022/06/28 01:21:35;;;;;;;17.40;10.40;;;;;;;18.75;78.05;99888.44;109089;1277;23488;-68
2022/06/28 01:24:02;;;;;;;13.20;9.80;;;;;;;18.74;78.09;99892.88;108952;1280;138586;-68
2022/06/28 01:26:46;;;;;;;15.00;10.60;;;;;;;18.73;78.14;99892.34;109167;1277;22405;-68
2022/06/28 01:29:13;;;;;;;11.90;10.10;;;;;;;18.71;78.18;99894.08;108959;1277;138740;-68
2022/06/28 01:31:47;;;;;;;16.90;10.80;;;;;;;18.70;78.33;99889.23;108768;1280;22580;-68
2022/06/28 01:34:15;;;;;;;12.70;10.70;;;;;;;18.68;78.37;99885.46;108965;1277;138635;-67
2022/06/28 01:36:43;;;;;;;16.90;11.00;;;;;;;18.68;78.45;99886.17;108984;1280;23892;-68
2022/06/28 01:39:10;;;;;;;14.00;10.70;;;;;;;18.67;78.61;99890.22;108998;1280;22490;-68
2022/06/28 01:41:37;;;;;;;15.80;10.70;;;;;;;18.67;78.59;99890.17;108889;1278;139376;-68
2022/06/28 01:44:13;;;;;;;15.80;10.60;;;;;;;18.64;78.59;99886.39;109071;1280;22458;-68
2022/06/28 01:46:50;;;;;;;13.30;11.20;;;;;;;18.63;78.46;99886.70;108952;1277;139275;-67
2022/06/28 01:49:17;;;;;;;15.40;11.20;;;;;;;18.61;78.72;99885.48;109060;1278;22535;-68
2022/06/28 01:51:44;;;;;;;16.20;11.40;;;;;;;18.59;78.75;99884.20;109056;1277;22446;-68
2022/06/28 01:54:11;;;;;;;16.10;11.50;;;;;;;18.57;78.92;99886.89;108972;1278;138376;-68
2022/06/28 01:56:37;;;;;;;22.80;11.10;;;;;;;18.56;79.00;99884.86;109144;1277;22458;-68
2022/06/28 01:59:15;;;;;;;18.30;11.00;;;;;;;18.56;79.07;99887.09;108955;1277;138640;-68
2022/06/28 02:01:50;;;;;;;16.40;11.30;;;;;;;18.54;79.30;99884.52;109059;1277;23120;-68
2022/06/28 02:04:19;;;;;;;14.40;10.10;;;;;;;18.55;79.46;99888.15;108966;1277;138841;-68
2022/06/28 02:06:49;;;;;;;14.60;11.00;;;;;;;18.55;79.36;99887.36;109001;1280;23183;-68
2022/06/28 02:09:16;;;;;;;15.30;11.90;;;;;;;18.55;79.45;99883.73;108996;1277;22517;-69
2022/06/28 02:11:45;;;;;;;14.10;9.90;;;;;;;18.55;79.37;99884.38;109063;1277;138716;-67
2022/06/28 02:14:13;;;;;;;12.30;10.80;;;;;;;18.55;79.43;99884.17;109067;1277;22279;-68
2022/06/28 02:16:40;;;;;;;12.60;11.00;;;;;;;18.55;79.36;99883.56;108845;1279;138717;-69
2022/06/28 02:19:07;;;;;;;14.00;11.10;;;;;;;18.54;79.41;99886.16;109123;1277;22799;-68
2022/06/28 02:21:38;;;;;;;14.90;11.30;;;;;;;18.54;79.58;99883.46;109009;1279;22487;-69
2022/06/28 02:24:05;;;;;;;14.30;11.40;;;;;;;18.54;79.67;99879.92;109108;1277;140063;-69
2022/06/28 02:26:32;;;;;;;16.00;11.10;;;;;;;18.55;79.88;99881.23;108980;1279;22432;-69
2022/06/28 02:29:03;;;;;;;11.60;10.40;;;;;;;18.56;79.79;99879.96;109041;1277;138301;-69
2022/06/28 02:31:30;;;;;;;14.00;11.20;;;;;;;18.57;80.07;99878.29;109063;1277;22341;-69
2022/06/28 02:33:57;;;;;;;18.50;11.20;;;;;;;18.59;80.15;99875.59;108999;1277;23140;-69
2022/06/28 02:41:46;;;;;;;15.90;11.50;;;;;;;18.67;80.51;99877.41;108851;1280;139453;-67
2022/06/28 02:44:15;;;;;;;13.70;11.40;;;;;;;18.70;80.52;99875.88;108917;1279;22459;-67
2022/06/28 02:46:42;;;;;;;13.20;11.20;;;;;;;18.74;80.68;99878.86;108994;1277;138645;-67
2022/06/28 02:49:09;;;;;;;13.90;10.10;;;;;;;18.77;80.78;99876.97;108874;1281;22545;-66
2022/06/28 02:51:35;;;;;;;15.60;10.60;;;;;;;18.81;80.85;99874.46;109054;1278;22484;-67
2022/06/28 02:54:02;;;;;;;12.00;10.40;;;;;;;18.86;80.99;99873.02;108984;1277;138500;-68
2022/06/28 02:56:29;;;;;;;14.90;11.20;;;;;;;18.91;80.96;99870.92;109178;1277;22463;-67
2022/06/28 02:58:56;;;;;;;13.30;11.10;;;;;;;18.96;81.08;99873.58;109073;1277;138724;-67
2022/06/28 03:01:23;;;;;;;13.10;9.80;;;;;;;19.01;81.14;99873.15;109048;1278;22466;-67
2022/06/28 03:03:49;;;;;;;12.50;11.20;;;;;;;19.07;81.27;99872.37;109054;1277;22639;-67
2022/06/28 03:06:16;;;;;;;13.80;11.40;;;;;;;19.14;81.27;99872.04;109069;1277;138340;-68
2022/06/28 03:08:43;;;;;;;15.50;11.90;;;;;;;19.20;81.21;99866.77;109056;1278;23079;-68
2022/06/28 03:11:09;;;;;;;12.90;11.00;;;;;;;19.26;81.26;99868.91;108839;1279;140203;-67
2022/06/28 03:13:37;;;;;;;15.40;10.90;;;;;;;19.33;81.44;99862.91;108997;1279;23162;-67
2022/06/28 03:16:03;;;;;;;18.60;10.90;;;;;;;19.39;81.49;99862.72;109067;1278;22681;-67
2022/06/28 03:18:30;;;;;;;15.20;11.00;;;;;;;19.48;81.45;99863.19;108780;1280;138273;-67
2022/06/28 03:20:57;;;;;;;13.20;11.00;;;;;;;19.55;81.48;99870.50;108947;1279;22572;-67
2022/06/28 03:23:23;;;;;;;14.20;11.40;;;;;;;19.63;81.59;99869.05;105139;1279;138560;-67
2022/06/28 03:25:50;;;;;;;16.00;11.70;;;;;;;19.71;81.62;99872.59;104806;1278;25117;-66
2022/06/28 03:28:17;;;;;;;12.90;11.60;;;;;;;19.79;81.69;99872.50;104728;1279;139397;-66
2022/06/28 03:30:52;;;;;;;12.30;11.00;;;;;;;19.88;81.74;99873.37;108905;1279;23230;-67
2022/06/28 03:33:18;;;;;;;13.20;11.90;;;;;;;19.96;81.93;99873.45;109069;1279;22520;-66
2022/06/28 03:35:45;;;;;;;12.00;10.60;;;;;;;20.05;81.95;99874.34;108926;1278;139966;-67
2022/06/28 03:38:12;;;;;;;13.40;10.90;;;;;;;20.15;82.09;99874.52;109018;1279;22531;-67
2022/06/28 03:41:22;;;;;;;15.20;11.40;;;;;;;20.26;81.92;99865.49;108894;1277;138936;-67
2022/06/28 03:43:52;;;;;;;13.30;11.30;;;;;;;20.38;81.79;99871.83;109009;1277;22479;-66
2022/06/28 03:46:19;;;;;;;12.20;10.90;;;;;;;20.49;81.84;99871.00;108944;1278;139547;-67
2022/06/28 03:48:52;;;;;;;18.80;11.70;;;;;;;20.60;81.72;99872.77;108984;1279;22415;-67
2022/06/28 03:51:21;;;;;;;14.80;10.00;;;;;;;20.73;81.55;99872.60;109069;1279;22540;-67
2022/06/28 03:54:06;;;;;;;16.30;9.50;;;;;;;20.87;80.78;99870.84;108869;1279;138793;-67
2022/06/28 03:56:37;;;;;;;10.20;9.20;;;;;;;21.02;79.83;99870.56;108999;1279;22487;-67
2022/06/28 03:59:04;;;;;;;11.10;8.50;;;;;;;21.16;79.26;99870.45;108904;1279;138299;-68
2022/06/28 04:01:31;;;;;;;9.00;8.10;;;;;;;21.32;78.52;99875.39;109008;1279;22599;-68
2022/06/28 04:03:57;;;;;;;9.20;8.30;;;;;;;21.49;77.74;99875.73;108849;1279;22498;-68
2022/06/28 04:06:24;;;;;;;8.60;7.70;;;;;;;21.68;76.93;99878.63;108774;1279;138130;-68
2022/06/28 04:08:52;;;;;;;9.40;8.40;;;;;;;21.86;75.97;99876.70;108995;1279;22469;-68
2022/06/28 04:11:18;;;;;;;8.80;7.90;;;;;;;22.03;75.24;99876.57;108873;1279;138311;-68
2022/06/28 04:13:47;;;;;;;9.70;7.90;;;;;;;22.20;74.89;99879.42;109139;1277;22476;-68
2022/06/28 04:16:15;;;;;;;9.40;7.40;;;;;;;22.35;74.45;99874.20;109034;1277;138707;-68
2022/06/28 04:18:43;;;;;;;8.30;7.00;;;;;;;22.51;73.84;99869.13;109126;1277;22438;-68
2022/06/28 04:21:31;;;;;;;10.30;7.00;;;;;;;22.69;73.24;99865.23;108992;1279;22461;-68
2022/06/28 04:24:17;;;;;;;11.90;7.00;;;;;;;22.86;72.46;99867.67;109109;1277;138318;-68
2022/06/28 04:26:58;;;;;;;10.70;6.60;;;;;;;23.02;71.67;99866.03;108981;1279;22497;-68
2022/06/28 04:29:26;;;;;;;8.20;6.80;;;;;;;23.17;70.57;99865.25;109009;1277;138283;-68
2022/06/28 04:31:53;;;;;;;9.80;7.00;;;;;;;23.30;69.98;99862.25;109006;1279;22453;-68
2022/06/28 04:34:20;;;;;;;7.80;6.70;;;;;;;23.45;69.57;99866.16;108901;1277;138632;-68
2022/06/28 04:36:49;;;;;;;7.50;6.50;;;;;;;23.58;68.65;99870.80;109017;1280;22448;-68
2022/06/28 04:39:16;;;;;;;7.30;6.60;;;;;;;23.72;67.53;99867.23;109025;1277;23337;-68
2022/06/28 04:41:58;;;;;;;7.10;6.40;;;;;;;23.83;67.08;99862.95;109193;1277;138007;-68
2022/06/28 04:44:28;;;;;;;7.80;6.90;;;;;;;23.93;67.02;99865.83;109233;1277;22459;-67
2022/06/28 04:46:55;;;;;;;7.00;6.30;;;;;;;24.03;66.48;99866.02;105965;1277;138338;-67
2022/06/28 04:49:23;;;;;;;9.70;6.90;;;;;;;24.11;66.97;99871.98;109188;1277;23624;-67
2022/06/28 04:51:55;;;;;;;9.70;6.70;;;;;;;24.19;66.09;99870.55;109000;1279;22476;-68
2022/06/28 04:54:31;;;;;;;10.30;6.20;;;;;;;24.28;65.15;99868.20;108865;1279;139035;-67
2022/06/28 04:57:16;;;;;;;11.20;6.20;;;;;;;24.37;64.90;99867.83;109092;1279;22438;-67
2022/06/28 04:59:48;;;;;;;7.00;6.10;;;;;;;24.45;64.37;99869.81;108829;1279;138436;-67
2022/06/28 05:02:36;;;;;;;7.50;6.00;;;;;;;24.54;63.56;99869.56;108998;1279;23308;-68
2022/06/28 05:05:06;;;;;;;8.30;6.00;;;;;;;24.64;62.79;99861.58;108900;1279;137347;-67
2022/06/28 05:07:38;;;;;;;16.50;7.10;;;;;;;24.73;62.66;99863.41;109016;1279;22596;-67
2022/06/28 05:10:09;;;;;;;6.10;5.60;;;;;;;24.82;62.48;99861.83;108952;1277;138601;-68
2022/06/28 05:12:39;;;;;;;6.50;5.90;;;;;;;24.97;62.30;99864.75;109198;1277;22518;-68
2022/06/28 05:15:08;;;;;;;11.00;6.10;;;;;;;25.12;62.07;99859.70;109009;1277;22570;-58
2022/06/28 05:17:56;;;;;;;9.00;6.40;;;;;;;25.32;61.60;99858.30;108849;1279;137538;-68
2022/06/28 05:20:24;;;;;;;9.30;6.40;;;;;;;25.54;61.33;99853.70;109083;1277;22554;-68
2022/06/28 05:22:50;;;;;;;7.20;6.00;;;;;;;25.83;60.66;99848.46;109059;1277;137771;-74
2022/06/28 05:25:46;;;;;;;7.90;6.00;;;;;;;26.21;59.81;99850.35;108790;1279;22568;-68
2022/06/28 05:28:13;;;;;;;7.50;5.40;;;;;;;26.57;58.84;99848.69;108927;1279;137729;-69
2022/06/28 05:30:40;;;;;;;24.10;7.50;;;;;;;27.01;57.68;99843.17;108948;1279;23197;-67
2022/06/28 05:33:07;;;;;;;9.10;6.40;;;;;;;27.45;56.09;99842.94;108934;1279;22533;-67
2022/06/28 05:35:34;;;;;;;15.40;5.30;;;;;;;27.88;54.96;99840.60;108928;1277;139137;-67
2022/06/28 05:38:02;;;;;;;8.80;5.50;;;;;;;28.31;53.55;99839.07;109167;1277;23411;-68
2022/06/28 05:40:29;;;;;;;14.30;5.30;;;;;;;28.68;52.49;99835.89;109123;1277;138663;-68
2022/06/28 05:42:56;;;;;;;6.30;5.40;;;;;;;29.08;50.78;99833.20;109219;1277;22429;-68
2022/06/28 05:45:23;;;;;;;9.50;5.80;;;;;;;29.36;50.06;99834.48;109057;1277;22496;-68
2022/06/28 05:47:50;;;;;;;20.00;6.50;;;;;;;29.58;49.14;99836.52;108944;1277;137304;-69
2022/06/28 05:50:18;;;;;;;10.60;5.40;;;;;;;29.76;48.41;99838.33;109125;1277;22551;-71
2022/06/28 05:52:44;;;;;;;9.60;5.20;;;;;;;29.86;47.54;99840.80;108965;1277;137651;-71
2022/06/28 05:55:11;;;;;;;6.40;5.10;;;;;;;29.87;46.91;99840.73;109086;1277;22512;-72
2022/06/28 05:57:39;;;;;;;26.40;9.70;;;;;;;29.82;47.58;99836.56;109128;1277;23543;-71
2022/06/28 06:00:07;;;;;;;13.20;6.00;;;;;;;29.78;47.74;99836.98;108906;1278;137819;-70
2022/06/28 06:02:40;;;;;;;15.90;5.80;;;;;;;29.74;47.45;99839.00;109137;1277;22473;-69
2022/06/28 06:05:08;;;;;;;10.20;4.90;;;;;;;29.67;47.85;99841.73;108895;1277;139734;-71
2022/06/28 06:07:35;;;;;;;16.30;5.10;;;;;;;29.59;47.01;99844.64;108599;1277;22587;-71
2022/06/28 06:10:02;;;;;;;6.00;5.00;;;;;;;29.47;47.36;99845.98;108941;1279;22469;-70
2022/06/28 06:12:29;;;;;;;8.10;5.10;;;;;;;29.31;47.59;99845.29;108998;1277;138190;-71
2022/06/28 06:14:58;;;;;;;6.50;5.30;;;;;;;29.10;47.94;99843.17;109174;1277;22583;-70
2022/06/28 06:17:25;;;;;;;8.60;5.30;;;;;;;28.98;48.41;99843.54;108924;1277;138822;-70
2022/06/28 06:19:52;;;;;;;9.00;4.80;;;;;;;28.90;48.37;99840.88;109152;1277;22482;-71
2022/06/28 06:22:18;;;;;;;7.40;4.40;;;;;;;28.82;48.29;99833.77;109105;1277;138050;-65
2022/06/28 06:24:45;;;;;;;5.80;3.90;;;;;;;28.72;48.15;99833.08;109062;1277;23175;-65
2022/06/28 06:27:20;;;;;;;5.20;4.70;;;;;;;28.65;48.37;99834.86;109151;1277;23730;-66
2022/06/28 06:29:47;;;;;;;7.40;4.60;;;;;;;28.58;48.40;99832.08;109024;1277;138366;-66
2022/06/28 06:32:30;;;;;;;6.70;4.80;;;;;;;28.50;49.02;99831.53;109035;1277;22445;-66
2022/06/28 06:35:15;;;;;;;6.20;4.30;;;;;;;28.45;48.93;99827.59;109017;1277;138281;-66
2022/06/28 06:37:42;;;;;;;5.60;5.10;;;;;;;28.44;49.25;99827.16;108959;1277;22581;-66
2022/06/28 06:40:09;;;;;;;7.00;5.00;;;;;;;28.44;49.38;99833.27;108928;1277;137731;-65
2022/06/28 06:42:36;;;;;;;6.10;4.20;;;;;;;28.45;49.15;99834.70;109126;1277;23443;-66
2022/06/28 06:45:04;;;;;;;5.70;4.00;;;;;;;28.45;49.20;99833.52;109030;1277;22442;-66
2022/06/28 06:47:31;;;;;;;11.50;4.90;;;;;;;28.46;48.43;99837.05;108864;1279;137498;-66
2022/06/28 06:49:58;;;;;;;4.80;4.30;;;;;;;28.45;48.41;99832.95;109019;1278;22559;-66
2022/06/28 06:52:25;;;;;;;7.20;4.40;;;;;;;28.45;48.20;99833.91;108950;1279;137444;-66
2022/06/28 06:54:52;;;;;;;7.20;4.70;;;;;;;28.44;47.94;99833.96;109105;1277;22444;-66
2022/06/28 06:57:21;;;;;;;7.40;4.20;;;;;;;28.39;47.67;99828.61;109004;1279;23416;-66
2022/06/28 06:59:48;;;;;;;5.10;4.60;;;;;;;28.38;48.34;99830.98;108923;1279;137328;-66
2022/06/28 07:02:15;;;;;;;9.10;4.50;;;;;;;28.41;47.71;99826.86;109102;1277;22478;-66
2022/06/28 07:04:47;;;;;;;8.90;5.10;;;;;;;28.46;47.64;99827.36;108921;1279;137650;-66
2022/06/28 07:07:14;;;;;;;7.00;4.90;;;;;;;28.52;47.69;99832.05;109151;1277;22521;-66
2022/06/28 07:09:41;;;;;;;5.00;4.00;;;;;;;28.53;46.98;99830.95;109042;1279;23282;-68
2022/06/28 07:12:08;;;;;;;10.10;4.30;;;;;;;28.49;47.20;99827.83;109039;1277;137949;-68
2022/06/28 07:14:35;;;;;;;10.60;4.50;;;;;;;28.47;47.64;99825.63;109208;1277;22496;-67
2022/06/28 07:17:03;;;;;;;9.40;4.40;;;;;;;28.50;47.91;99824.48;108955;1277;137644;-66
2022/06/28 07:19:31;;;;;;;12.50;5.00;;;;;;;28.55;48.66;99825.47;109015;1279;22500;-67
2022/06/28 07:21:58;;;;;;;8.70;4.20;;;;;;;28.62;47.33;99824.46;109154;1277;22456;-67
2022/06/28 07:24:24;;;;;;;4.40;4.00;;;;;;;28.66;47.21;99824.71;108965;1277;137528;-68
2022/06/28 07:26:51;;;;;;;6.70;4.50;;;;;;;28.71;46.44;99828.42;109081;1277;22273;-67
2022/06/28 07:29:19;;;;;;;6.20;4.80;;;;;;;28.75;46.48;99833.45;109090;1277;138816;-65
2022/06/28 07:31:45;;;;;;;10.60;5.20;;;;;;;28.77;47.51;99834.85;109182;1276;22997;-66
2022/06/28 07:34:13;;;;;;;14.60;5.50;;;;;;;28.82;47.22;99842.52;108938;1277;138644;-65
2022/06/28 07:36:41;;;;;;;7.10;5.20;;;;;;;28.86;46.88;99841.95;109024;1277;22474;-66
2022/06/28 07:39:08;;;;;;;6.60;5.10;;;;;;;28.91;47.07;99837.54;108979;1278;22613;-66
2022/06/28 07:41:53;;;;;;;8.90;5.00;;;;;;;28.96;47.99;99833.23;109066;1277;137660;-66
2022/06/28 07:44:39;;;;;;;5.70;5.20;;;;;;;29.03;47.41;99828.77;109187;1277;22530;-67
2022/06/28 07:47:05;;;;;;;12.00;5.70;;;;;;;29.08;47.36;99834.08;109088;1277;137354;-65
2022/06/28 07:52:37;;;;;;;10.70;5.00;;;;;;;29.13;46.91;99839.71;109123;1276;138034;-66
2022/06/28 07:55:09;;;;;;;5.00;4.40;;;;;;;29.15;46.55;99839.56;109083;1277;22450;-55
2022/06/28 07:58:00;;;;;;;4.90;4.50;;;;;;;29.18;45.84;99839.38;109225;1276;23191;-66
2022/06/28 08:00:27;;;;;;;19.40;15.70;;;;;;;29.20;46.17;99844.61;109061;1277;137280;-67
2022/06/28 08:03:06;;;;;;;6.60;5.40;;;;;;;29.21;46.37;99849.61;109012;1279;22559;-67
2022/06/28 08:05:34;;;;;;;7.60;4.70;;;;;;;29.23;45.50;99848.20;108047;1277;138237;-66
2022/06/28 08:08:02;;;;;;;5.20;4.80;;;;;;;29.23;44.83;99845.81;107036;1277;22473;-66
2022/06/28 08:10:33;;;;;;;4.90;4.50;;;;;;;29.21;44.70;99843.20;106949;1277;139890;-65
2022/06/28 08:13:03;;;;;;;6.10;4.60;;;;;;;29.15;44.67;99840.05;107086;1279;22393;-66
2022/06/28 08:15:30;;;;;;;10.40;5.10;;;;;;;29.09;45.33;99835.61;107139;1278;22488;-66
2022/06/28 08:17:57;;;;;;;11.80;5.00;;;;;;;29.05;45.66;99837.86;107051;1277;138834;-67
2022/06/28 08:20:23;;;;;;;5.90;4.40;;;;;;;29.01;45.72;99837.97;106954;1279;22450;-66
2022/06/28 08:22:50;;;;;;;6.40;5.00;;;;;;;29.00;45.46;99838.17;107000;1279;139203;-66
2022/06/28 08:25:17;;;;;;;5.30;4.30;;;;;;;29.00;44.88;99836.34;107090;1279;23023;-66
2022/06/28 08:27:47;;;;;;;5.70;5.00;;;;;;;28.98;44.78;99840.55;107171;1279;22467;-65
2022/06/28 08:30:13;;;;;;;6.20;4.80;;;;;;;28.95;45.19;99838.98;107076;1279;137526;-65
2022/06/28 08:32:41;;;;;;;5.70;5.20;;;;;;;28.93;45.00;99832.92;107329;1278;23435;-66
2022/06/28 08:35:08;;;;;;;5.80;4.80;;;;;;;28.89;45.26;99837.98;107108;1277;137375;-65
2022/06/28 08:37:35;;;;;;;5.50;5.00;;;;;;;28.86;46.04;99830.71;107170;1277;22698;-66
2022/06/28 08:40:01;;;;;;;5.50;4.80;;;;;;;28.88;45.70;99832.91;107166;1278;22507;-66
2022/06/28 08:42:30;;;;;;;7.00;4.70;;;;;;;28.91;45.20;99826.00;107084;1278;138211;-66
2022/06/28 08:45:01;;;;;;;20.30;5.40;;;;;;;28.97;45.41;99830.20;107005;1279;22406;-66
2022/06/28 08:47:32;;;;;;;7.60;4.90;;;;;;;29.03;45.28;99827.41;106870;1279;139267;-66
2022/06/28 08:50:07;;;;;;;10.60;4.90;;;;;;;29.09;45.28;99818.54;106934;1279;24653;-66
2022/06/28 08:52:35;;;;;;;7.30;4.70;;;;;;;29.13;45.85;99819.33;106965;1279;138702;-66
2022/06/28 08:55:04;;;;;;;7.30;4.20;;;;;;;29.17;44.94;99822.60;106927;1279;22456;-66
2022/06/28 08:57:39;;;;;;;7.50;4.60;;;;;;;29.19;44.70;99817.59;107039;1279;22420;-66
2022/06/28 09:00:08;;;;;;;7.30;4.60;;;;;;;29.19;44.57;99818.30;106994;1278;138537;-66
2022/06/28 09:02:35;;;;;;;5.70;5.00;;;;;;;29.17;44.80;99809.52;107051;1278;22434;-67
2022/06/28 09:05:01;;;;;;;5.40;4.70;;;;;;;29.15;45.22;99813.66;106844;1279;138742;-66
2022/06/28 09:07:29;;;;;;;6.60;4.70;;;;;;;29.13;45.46;99812.20;103959;1278;23096;-67
2022/06/28 09:09:55;;;;;;;7.90;4.90;;;;;;;29.13;45.46;99811.80;103856;1278;26179;-66
2022/06/28 09:12:33;;;;;;;5.80;5.20;;;;;;;29.16;44.83;99811.60;103792;1278;26274;-65
2022/06/28 09:15:04;;;;;;;8.20;5.40;;;;;;;29.17;44.85;99813.39;103798;1278;23570;-66
2022/06/28 09:17:33;;;;;;;6.00;5.40;;;;;;;29.23;45.16;99816.60;106933;1277;138068;-67
2022/06/28 09:20:05;;;;;;;8.40;5.70;;;;;;;29.28;45.47;99811.72;106635;1279;435003;-67
2022/06/28 09:24:31;;;;;;;11.90;5.30;;;;;;;29.43;44.72;99809.43;100884;1312;545229;-67
2022/06/28 09:27:04;;;;;;;5.80;5.20;;;;;;;29.48;44.79;99814.15;102953;1287;23274;-66
2022/06/28 09:29:49;;;;;;;6.40;5.00;;;;;;;29.53;44.05;99805.48;102840;1287;139397;-67
2022/06/28 09:32:16;;;;;;;5.90;4.70;;;;;;;29.51;43.90;99802.57;103035;1287;26749;-67
2022/06/28 09:34:53;;;;;;;5.70;4.90;;;;;;;29.48;44.02;99801.71;102669;1290;137519;-67
2022/06/28 09:37:38;;;;;;;5.40;5.00;;;;;;;29.45;43.97;99797.51;102892;1287;234742;-67
2022/06/28 09:40:13;;;;;;;8.50;5.80;;;;;;;29.43;43.93;99794.02;103088;1284;23750;-74
2022/06/28 09:42:41;;;;;;;42.40;9.80;;;;;;;29.44;44.42;99790.73;106681;1284;23734;-71
2022/06/28 09:45:10;;;;;;;6.90;5.20;;;;;;;29.47;44.60;99782.69;106760;1284;22441;-71
2022/06/28 09:47:45;;;;;;;6.40;5.70;;;;;;;29.53;44.26;99789.04;106599;1284;136805;-70
2022/06/28 09:50:32;;;;;;;7.10;5.60;;;;;;;29.56;43.83;99790.69;106725;1285;22394;-70
2022/06/28 09:52:59;;;;;;;5.90;5.40;;;;;;;29.55;43.67;99785.77;106497;1284;139791;-70
2022/06/28 09:55:30;;;;;;;6.90;5.70;;;;;;;29.56;43.68;99780.90;106790;1284;22466;-71
2022/06/28 09:57:58;;;;;;;6.20;4.80;;;;;;;29.59;44.09;99780.30;106845;1284;22402;-70
2022/06/28 10:00:25;;;;;;;6.40;5.40;;;;;;;29.63;44.02;99779.23;106621;1284;137448;-70
2022/06/28 10:02:53;;;;;;;5.90;5.30;;;;;;;29.68;43.56;99772.73;106726;1284;23637;-70
2022/06/28 10:05:21;;;;;;;7.60;4.60;;;;;;;29.71;43.56;99768.36;106544;1284;138362;-69
2022/06/28 10:07:48;;;;;;;7.30;5.80;;;;;;;29.76;43.67;99771.38;103619;1284;22764;-69
2022/06/28 10:10:14;;;;;;;6.10;5.50;;;;;;;29.81;43.13;99768.25;103401;1284;137540;-70
2022/06/28 10:15:38;;;;;;;8.20;5.60;;;;;;;29.89;42.79;99762.80;103486;1284;25266;-69
2022/06/28 10:18:19;;;;;;;9.30;5.50;;;;;;;29.89;42.90;99755.74;103214;1284;138607;-70
2022/06/28 10:20:46;;;;;;;6.40;5.20;;;;;;;29.91;43.11;99757.52;103866;1274;23067;-70
2022/06/28 10:23:27;;;;;;;5.40;4.90;;;;;;;29.92;42.87;99762.44;103924;1275;138131;-70
2022/06/28 10:26:04;;;;;;;9.10;4.90;;;;;;;29.93;42.81;99759.23;104150;1275;27027;-71
2022/06/28 10:28:42;;;;;;;7.00;5.10;;;;;;;29.96;42.39;99759.23;103809;1277;139317;-70
2022/06/28 10:31:21;;;;;;;6.60;5.30;;;;;;;29.98;42.43;99759.27;103974;1274;24269;-66
2022/06/28 10:34:13;;;;;;;6.20;5.70;;;;;;;30.02;42.84;99756.98;103877;1277;138111;-66
2022/06/28 10:36:48;;;;;;;8.30;6.10;;;;;;;30.10;42.84;99755.55;104208;1277;26990;-68
2022/06/28 10:39:15;;;;;;;5.90;5.50;;;;;;;30.16;42.31;99751.84;103994;1274;23248;-68
2022/06/28 10:41:53;;;;;;;6.40;5.80;;;;;;;30.20;42.68;99756.23;103855;1275;138642;-71
2022/06/28 10:44:43;;;;;;;10.20;5.20;;;;;;;30.28;42.23;99759.62;107557;1275;23952;-68
2022/06/28 10:47:11;;;;;;;7.30;5.30;;;;;;;30.34;41.39;99762.33;107395;1274;138649;-69
2022/06/28 10:49:44;;;;;;;7.00;5.40;;;;;;;30.33;41.53;99755.56;107442;1275;22436;-69
2022/06/28 10:52:18;;;;;;;13.00;5.90;;;;;;;30.31;41.55;99752.41;107353;1274;137296;-67
2022/06/28 10:54:51;;;;;;;6.80;5.40;;;;;;;30.33;41.57;99751.46;107469;1275;24675;-67
2022/06/28 10:57:19;;;;;;;11.50;6.00;;;;;;;30.37;42.06;99748.55;107476;1275;24310;-68
2022/06/28 10:59:48;;;;;;;9.50;5.10;;;;;;;30.40;42.46;99745.05;107175;1277;137147;-67
2022/06/28 11:02:14;;;;;;;13.10;5.90;;;;;;;30.46;42.28;99746.14;107262;1274;22489;-64
2022/06/28 11:04:41;;;;;;;6.60;5.00;;;;;;;30.51;41.85;99744.69;107003;1278;138778;-63
2022/06/28 11:07:24;;;;;;;13.10;6.90;;;;;;;30.53;41.78;99737.64;107288;1275;22550;-65
2022/06/28 11:10:00;;;;;;;9.20;5.60;;;;;;;30.55;42.04;99733.17;107190;1277;24949;-65
2022/06/28 11:12:27;;;;;;;6.50;5.50;;;;;;;30.57;42.08;99734.33;107074;1275;136836;-62
2022/06/28 11:14:55;;;;;;;16.00;5.80;;;;;;;30.59;41.85;99731.11;107364;1277;22462;-63
2022/06/28 11:17:27;;;;;;;8.30;5.50;;;;;;;30.60;41.61;99729.35;107188;1275;138653;-63
2022/06/28 11:20:00;;;;;;;11.30;6.10;;;;;;;30.60;41.55;99722.85;107245;1274;23519;-63
2022/06/28 11:22:31;;;;;;;6.90;5.30;;;;;;;30.61;41.51;99723.34;107207;1275;138808;-62
2022/06/28 11:25:00;;;;;;;7.20;5.50;;;;;;;30.64;41.24;99723.52;107203;1274;23826;-64
2022/06/28 11:27:27;;;;;;;9.30;5.90;;;;;;;30.64;41.02;99726.34;107268;1275;23387;-63
2022/06/28 11:30:01;;;;;;;8.90;5.50;;;;;;;30.63;41.36;99721.35;107102;1274;138548;-63
2022/06/28 11:32:35;;;;;;;5.90;5.30;;;;;;;30.63;41.77;99727.77;107283;1275;23987;-62
2022/06/28 11:35:03;;;;;;;5.80;5.20;;;;;;;30.67;41.33;99723.33;107190;1275;138135;-62
2022/06/28 11:37:52;;;;;;;6.10;5.40;;;;;;;30.69;41.22;99716.91;107222;1275;22443;-62
2022/06/28 11:40:26;;;;;;;6.90;6.20;;;;;;;30.70;41.17;99715.71;107202;1275;138288;-62
2022/06/28 11:43:02;;;;;;;8.90;5.00;;;;;;;30.69;41.11;99713.70;107347;1277;22410;-63